sensor_id;sensor_type;location;lat;lon;timestamp;temperature;humidity
19496;DHT22;9888;48.606;9.630;2023-02-01T00:00:21;2.50;99.90
19496;DHT22;9888;48.606;9.630;2023-02-01T00:02:49;2.50;99.90
19496;DHT22;9888;48.606;9.630;2023-02-01T00:05:18;2.50;99.90
19496;DHT22;9888;48.606;9.630;2023-02-01T00:07:47;2.50;99.90
19496;DHT22;9888;48.606;9.630;2023-02-01T00:10:16;2.50;99.90
19496;DHT22;9888;48.606;9.630;2023-02-01T00:12:43;2.50;99.90
19496;DHT22;9888;48.606;9.630;2023-02-01T00:15:11;2.50;99.90
19496;DHT22;9888;48.606;9.630;2023-02-01T00:17:38;2.50;99.90
19496;DHT22;9888;48.606;9.630;2023-02-01T00:20:08;2.50;99.90
19496;DHT22;9888;48.606;9.630;2023-02-01T00:22:42;2.50;99.90
19496;DHT22;9888;48.606;9.630;2023-02-01T00:25:09;2.40;99.90
19496;DHT22;9888;48.606;9.630;2023-02-01T00:27:37;2.40;99.90
19496;DHT22;9888;48.606;9.630;2023-02-01T00:30:11;2.40;99.90
19496;DHT22;9888;48.606;9.630;2023-02-01T00:32:39;2.40;99.90
19496;DHT22;9888;48.606;9.630;2023-02-01T00:35:08;2.40;99.90
19496;DHT22;9888;48.606;9.630;2023-02-01T00:37:36;2.40;99.90
19496;DHT22;9888;48.606;9.630;2023-02-01T00:40:04;2.40;99.90
19496;DHT22;9888;48.606;9.630;2023-02-01T00:42:31;2.40;99.90
19496;DHT22;9888;48.606;9.630;2023-02-01T00:44:58;2.40;99.90
19496;DHT22;9888;48.606;9.630;2023-02-01T00:47:27;2.40;99.90
19496;DHT22;9888;48.606;9.630;2023-02-01T00:49:53;2.40;99.90
19496;DHT22;9888;48.606;9.630;2023-02-01T00:52:21;2.40;99.90
19496;DHT22;9888;48.606;9.630;2023-02-01T00:54:48;2.40;99.90
19496;DHT22;9888;48.606;9.630;2023-02-01T00:57:16;2.40;99.90
19496;DHT22;9888;48.606;9.630;2023-02-01T00:59:43;2.40;99.90
19496;DHT22;9888;48.606;9.630;2023-02-01T01:02:11;2.40;99.90
19496;DHT22;9888;48.606;9.630;2023-02-01T01:04:41;2.40;99.90
19496;DHT22;9888;48.606;9.630;2023-02-01T01:07:08;2.50;99.90
19496;DHT22;9888;48.606;9.630;2023-02-01T01:09:37;2.50;99.90
19496;DHT22;9888;48.606;9.630;2023-02-01T01:12:04;2.50;99.90
19496;DHT22;9888;48.606;9.630;2023-02-01T01:14:32;2.50;99.90
19496;DHT22;9888;48.606;9.630;2023-02-01T01:17:04;2.50;99.90
19496;DHT22;9888;48.606;9.630;2023-02-01T01:19:31;2.60;99.90
19496;DHT22;9888;48.606;9.630;2023-02-01T01:22:00;2.50;99.90
19496;DHT22;9888;48.606;9.630;2023-02-01T01:24:27;2.60;99.90
19496;DHT22;9888;48.606;9.630;2023-02-01T01:26:56;2.60;99.90
19496;DHT22;9888;48.606;9.630;2023-02-01T01:29:23;2.60;99.90
19496;DHT22;9888;48.606;9.630;2023-02-01T01:31:50;2.60;99.90
19496;DHT22;9888;48.606;9.630;2023-02-01T01:34:17;2.60;99.90
19496;DHT22;9888;48.606;9.630;2023-02-01T01:36:45;2.60;99.90
19496;DHT22;9888;48.606;9.630;2023-02-01T01:39:15;2.60;99.90
19496;DHT22;9888;48.606;9.630;2023-02-01T01:41:47;2.60;99.90
19496;DHT22;9888;48.606;9.630;2023-02-01T01:47:18;2.60;99.90
19496;DHT22;9888;48.606;9.630;2023-02-01T01:49:45;2.60;99.90
19496;DHT22;9888;48.606;9.630;2023-02-01T01:52:14;2.60;99.90
19496;DHT22;9888;48.606;9.630;2023-02-01T01:54:48;2.50;99.90
19496;DHT22;9888;48.606;9.630;2023-02-01T01:57:26;2.50;99.90
19496;DHT22;9888;48.606;9.630;2023-02-01T02:00:07;2.50;99.90
19496;DHT22;9888;48.606;9.630;2023-02-01T02:02:37;2.60;99.90
19496;DHT22;9888;48.606;9.630;2023-02-01T02:05:09;2.60;99.90
19496;DHT22;9888;48.606;9.630;2023-02-01T02:07:42;2.60;99.90
19496;DHT22;9888;48.606;9.630;2023-02-01T02:10:11;2.60;99.90
19496;DHT22;9888;48.606;9.630;2023-02-01T02:12:43;2.60;99.90
19496;DHT22;9888;48.606;9.630;2023-02-01T02:15:13;2.60;99.90
19496;DHT22;9888;48.606;9.630;2023-02-01T02:18:19;2.60;99.90
19496;DHT22;9888;48.606;9.630;2023-02-01T02:21:16;2.60;99.90
19496;DHT22;9888;48.606;9.630;2023-02-01T02:29:46;2.70;99.90
19496;DHT22;9888;48.606;9.630;2023-02-01T02:32:41;2.60;99.90
19496;DHT22;9888;48.606;9.630;2023-02-01T02:44:20;2.70;99.90
19496;DHT22;9888;48.606;9.630;2023-02-01T02:47:20;2.70;99.90
19496;DHT22;9888;48.606;9.630;2023-02-01T02:50:01;2.70;99.90
19496;DHT22;9888;48.606;9.630;2023-02-01T02:53:03;2.70;99.90
19496;DHT22;9888;48.606;9.630;2023-02-01T02:55:56;2.70;99.90
19496;DHT22;9888;48.606;9.630;2023-02-01T02:58:43;2.70;99.90
19496;DHT22;9888;48.606;9.630;2023-02-01T03:01:30;2.70;99.90
19496;DHT22;9888;48.606;9.630;2023-02-01T03:04:17;2.80;99.90
19496;DHT22;9888;48.606;9.630;2023-02-01T03:06:45;2.80;99.90
19496;DHT22;9888;48.606;9.630;2023-02-01T03:09:34;2.80;99.90
19496;DHT22;9888;48.606;9.630;2023-02-01T03:12:09;2.80;99.90
19496;DHT22;9888;48.606;9.630;2023-02-01T03:15:03;2.70;99.90
19496;DHT22;9888;48.606;9.630;2023-02-01T03:17:37;2.70;99.90
19496;DHT22;9888;48.606;9.630;2023-02-01T03:20:07;2.70;99.90
19496;DHT22;9888;48.606;9.630;2023-02-01T03:22:39;2.70;99.90
19496;DHT22;9888;48.606;9.630;2023-02-01T03:25:18;2.70;99.90
19496;DHT22;9888;48.606;9.630;2023-02-01T03:28:00;2.70;99.90
19496;DHT22;9888;48.606;9.630;2023-02-01T03:30:36;2.60;99.90
19496;DHT22;9888;48.606;9.630;2023-02-01T03:33:08;2.60;99.90
19496;DHT22;9888;48.606;9.630;2023-02-01T03:36:04;2.60;99.90
19496;DHT22;9888;48.606;9.630;2023-02-01T03:38:58;2.50;99.90
19496;DHT22;9888;48.606;9.630;2023-02-01T03:41:44;2.50;99.90
19496;DHT22;9888;48.606;9.630;2023-02-01T03:44:23;2.50;99.90
19496;DHT22;9888;48.606;9.630;2023-02-01T03:47:03;2.40;99.90
19496;DHT22;9888;48.606;9.630;2023-02-01T03:52:10;2.50;99.90
19496;DHT22;9888;48.606;9.630;2023-02-01T03:54:39;2.50;99.90
19496;DHT22;9888;48.606;9.630;2023-02-01T03:57:11;2.50;99.90
19496;DHT22;9888;48.606;9.630;2023-02-01T03:59:41;2.50;99.90
19496;DHT22;9888;48.606;9.630;2023-02-01T04:02:11;2.60;99.90
19496;DHT22;9888;48.606;9.630;2023-02-01T04:04:39;2.80;99.90
19496;DHT22;9888;48.606;9.630;2023-02-01T04:07:14;2.70;99.90
19496;DHT22;9888;48.606;9.630;2023-02-01T04:09:43;2.80;99.90
19496;DHT22;9888;48.606;9.630;2023-02-01T04:12:11;2.80;99.90
19496;DHT22;9888;48.606;9.630;2023-02-01T04:14:38;2.80;99.90
19496;DHT22;9888;48.606;9.630;2023-02-01T04:17:05;2.80;99.90
19496;DHT22;9888;48.606;9.630;2023-02-01T04:19:32;2.70;99.90
19496;DHT22;9888;48.606;9.630;2023-02-01T04:21:59;2.70;99.90
19496;DHT22;9888;48.606;9.630;2023-02-01T04:24:27;2.60;99.90
19496;DHT22;9888;48.606;9.630;2023-02-01T04:26:54;2.70;99.90
19496;DHT22;9888;48.606;9.630;2023-02-01T04:29:22;2.60;99.90
19496;DHT22;9888;48.606;9.630;2023-02-01T04:31:50;2.70;99.90
19496;DHT22;9888;48.606;9.630;2023-02-01T04:34:17;2.70;99.90
19496;DHT22;9888;48.606;9.630;2023-02-01T04:36:44;2.90;99.90
19496;DHT22;9888;48.606;9.630;2023-02-01T04:39:11;2.90;99.90
19496;DHT22;9888;48.606;9.630;2023-02-01T04:41:38;2.90;99.90
19496;DHT22;9888;48.606;9.630;2023-02-01T04:44:05;2.90;99.90
19496;DHT22;9888;48.606;9.630;2023-02-01T04:46:33;2.80;99.90
19496;DHT22;9888;48.606;9.630;2023-02-01T04:49:01;2.80;99.90
19496;DHT22;9888;48.606;9.630;2023-02-01T04:51:28;2.80;99.90
19496;DHT22;9888;48.606;9.630;2023-02-01T04:53:56;2.90;99.90
19496;DHT22;9888;48.606;9.630;2023-02-01T04:56:24;3.00;99.90
19496;DHT22;9888;48.606;9.630;2023-02-01T04:58:51;3.10;99.90
19496;DHT22;9888;48.606;9.630;2023-02-01T05:01:19;3.10;99.90
19496;DHT22;9888;48.606;9.630;2023-02-01T05:03:47;3.20;99.90
19496;DHT22;9888;48.606;9.630;2023-02-01T05:06:14;3.20;99.90
19496;DHT22;9888;48.606;9.630;2023-02-01T05:08:41;3.20;99.90
19496;DHT22;9888;48.606;9.630;2023-02-01T05:11:09;3.20;99.90
19496;DHT22;9888;48.606;9.630;2023-02-01T05:13:55;3.20;99.90
19496;DHT22;9888;48.606;9.630;2023-02-01T05:16:23;3.20;99.90
19496;DHT22;9888;48.606;9.630;2023-02-01T05:18:50;3.20;99.90
19496;DHT22;9888;48.606;9.630;2023-02-01T05:21:17;3.20;99.90
19496;DHT22;9888;48.606;9.630;2023-02-01T05:23:44;3.20;99.90
19496;DHT22;9888;48.606;9.630;2023-02-01T05:26:30;3.20;99.90
19496;DHT22;9888;48.606;9.630;2023-02-01T05:28:57;3.10;99.90
19496;DHT22;9888;48.606;9.630;2023-02-01T05:31:26;3.20;99.90
19496;DHT22;9888;48.606;9.630;2023-02-01T05:33:54;3.20;99.90
19496;DHT22;9888;48.606;9.630;2023-02-01T05:36:28;3.20;99.90
19496;DHT22;9888;48.606;9.630;2023-02-01T05:38:55;3.10;99.90
19496;DHT22;9888;48.606;9.630;2023-02-01T05:41:23;3.10;99.90
19496;DHT22;9888;48.606;9.630;2023-02-01T05:43:50;3.10;99.90
19496;DHT22;9888;48.606;9.630;2023-02-01T05:49:39;3.20;99.90
19496;DHT22;9888;48.606;9.630;2023-02-01T05:52:07;3.20;99.90
19496;DHT22;9888;48.606;9.630;2023-02-01T05:54:35;3.20;99.90
19496;DHT22;9888;48.606;9.630;2023-02-01T05:57:02;3.20;99.90
19496;DHT22;9888;48.606;9.630;2023-02-01T05:59:29;3.20;99.90
19496;DHT22;9888;48.606;9.630;2023-02-01T06:01:56;3.20;99.90
19496;DHT22;9888;48.606;9.630;2023-02-01T06:04:23;3.30;99.90
19496;DHT22;9888;48.606;9.630;2023-02-01T06:06:50;3.20;99.90
19496;DHT22;9888;48.606;9.630;2023-02-01T06:09:17;3.20;99.90
19496;DHT22;9888;48.606;9.630;2023-02-01T06:11:44;3.20;99.90
19496;DHT22;9888;48.606;9.630;2023-02-01T06:14:11;3.20;99.90
19496;DHT22;9888;48.606;9.630;2023-02-01T06:16:39;3.20;99.90
19496;DHT22;9888;48.606;9.630;2023-02-01T06:19:06;3.20;99.90
19496;DHT22;9888;48.606;9.630;2023-02-01T06:21:35;3.20;99.90
19496;DHT22;9888;48.606;9.630;2023-02-01T06:24:02;3.10;99.90
19496;DHT22;9888;48.606;9.630;2023-02-01T06:26:33;3.10;99.90
19496;DHT22;9888;48.606;9.630;2023-02-01T06:29:00;3.00;99.90
19496;DHT22;9888;48.606;9.630;2023-02-01T06:31:27;2.90;99.90
19496;DHT22;9888;48.606;9.630;2023-02-01T06:33:56;2.70;99.90
19496;DHT22;9888;48.606;9.630;2023-02-01T06:36:23;2.50;99.90
19496;DHT22;9888;48.606;9.630;2023-02-01T06:38:50;2.40;99.90
19496;DHT22;9888;48.606;9.630;2023-02-01T06:41:19;2.30;99.90
19496;DHT22;9888;48.606;9.630;2023-02-01T06:43:47;2.30;99.90
19496;DHT22;9888;48.606;9.630;2023-02-01T06:46:17;2.30;99.90
19496;DHT22;9888;48.606;9.630;2023-02-01T06:48:44;2.40;99.90
19496;DHT22;9888;48.606;9.630;2023-02-01T06:51:26;2.30;99.90
19496;DHT22;9888;48.606;9.630;2023-02-01T06:53:56;2.30;99.90
19496;DHT22;9888;48.606;9.630;2023-02-01T06:56:23;2.30;99.90
19496;DHT22;9888;48.606;9.630;2023-02-01T06:58:50;2.30;99.90
19496;DHT22;9888;48.606;9.630;2023-02-01T07:01:17;2.30;99.90
19496;DHT22;9888;48.606;9.630;2023-02-01T07:03:49;2.40;99.90
19496;DHT22;9888;48.606;9.630;2023-02-01T07:06:17;2.40;99.90
19496;DHT22;9888;48.606;9.630;2023-02-01T07:08:45;2.40;99.90
19496;DHT22;9888;48.606;9.630;2023-02-01T07:11:14;2.50;99.90
19496;DHT22;9888;48.606;9.630;2023-02-01T07:13:42;2.60;99.90
19496;DHT22;9888;48.606;9.630;2023-02-01T07:16:12;2.70;99.90
19496;DHT22;9888;48.606;9.630;2023-02-01T07:18:40;2.60;99.90
19496;DHT22;9888;48.606;9.630;2023-02-01T07:21:07;2.70;99.90
19496;DHT22;9888;48.606;9.630;2023-02-01T07:23:35;2.80;99.90
19496;DHT22;9888;48.606;9.630;2023-02-01T07:26:04;2.80;99.90
19496;DHT22;9888;48.606;9.630;2023-02-01T07:28:35;2.90;99.90
19496;DHT22;9888;48.606;9.630;2023-02-01T07:31:04;3.00;99.90
19496;DHT22;9888;48.606;9.630;2023-02-01T07:33:32;3.00;99.90
19496;DHT22;9888;48.606;9.630;2023-02-01T07:36:02;3.00;99.90
19496;DHT22;9888;48.606;9.630;2023-02-01T07:38:29;3.00;99.90
19496;DHT22;9888;48.606;9.630;2023-02-01T07:41:03;3.10;99.90
19496;DHT22;9888;48.606;9.630;2023-02-01T07:43:31;3.10;99.90
19496;DHT22;9888;48.606;9.630;2023-02-01T07:46:01;3.10;99.90
19496;DHT22;9888;48.606;9.630;2023-02-01T07:48:29;3.10;99.90
19496;DHT22;9888;48.606;9.630;2023-02-01T07:51:04;3.10;99.90
19496;DHT22;9888;48.606;9.630;2023-02-01T07:53:33;3.10;99.90
19496;DHT22;9888;48.606;9.630;2023-02-01T07:56:02;3.10;99.90
19496;DHT22;9888;48.606;9.630;2023-02-01T07:58:29;3.10;99.90
19496;DHT22;9888;48.606;9.630;2023-02-01T08:00:56;3.10;99.90
19496;DHT22;9888;48.606;9.630;2023-02-01T08:03:42;3.10;99.90
19496;DHT22;9888;48.606;9.630;2023-02-01T08:06:08;3.20;99.90
19496;DHT22;9888;48.606;9.630;2023-02-01T08:08:35;3.20;99.90
19496;DHT22;9888;48.606;9.630;2023-02-01T08:11:23;3.20;99.90
19496;DHT22;9888;48.606;9.630;2023-02-01T08:13:52;3.30;99.90
19496;DHT22;9888;48.606;9.630;2023-02-01T08:16:21;3.30;99.90
19496;DHT22;9888;48.606;9.630;2023-02-01T08:18:56;3.30;99.90
19496;DHT22;9888;48.606;9.630;2023-02-01T08:21:26;3.30;99.90
19496;DHT22;9888;48.606;9.630;2023-02-01T08:24:04;3.30;99.90
19496;DHT22;9888;48.606;9.630;2023-02-01T08:26:33;3.30;99.90
19496;DHT22;9888;48.606;9.630;2023-02-01T08:29:03;3.20;99.90
19496;DHT22;9888;48.606;9.630;2023-02-01T08:31:31;3.30;99.90
19496;DHT22;9888;48.606;9.630;2023-02-01T08:34:00;3.30;99.90
19496;DHT22;9888;48.606;9.630;2023-02-01T08:36:30;3.30;99.90
19496;DHT22;9888;48.606;9.630;2023-02-01T08:38:57;3.30;99.90
19496;DHT22;9888;48.606;9.630;2023-02-01T08:41:27;3.30;99.90
19496;DHT22;9888;48.606;9.630;2023-02-01T08:43:56;3.30;99.90
19496;DHT22;9888;48.606;9.630;2023-02-01T08:46:24;3.40;99.90
19496;DHT22;9888;48.606;9.630;2023-02-01T08:48:51;3.40;99.90
19496;DHT22;9888;48.606;9.630;2023-02-01T08:51:23;3.40;99.90
19496;DHT22;9888;48.606;9.630;2023-02-01T08:53:51;3.50;99.90
19496;DHT22;9888;48.606;9.630;2023-02-01T08:56:19;3.50;99.90
19496;DHT22;9888;48.606;9.630;2023-02-01T08:58:46;3.40;99.90
19496;DHT22;9888;48.606;9.630;2023-02-01T09:01:15;3.40;99.90
19496;DHT22;9888;48.606;9.630;2023-02-01T09:03:43;3.40;99.90
19496;DHT22;9888;48.606;9.630;2023-02-01T09:06:14;3.40;99.90
19496;DHT22;9888;48.606;9.630;2023-02-01T09:08:42;3.40;99.90
19496;DHT22;9888;48.606;9.630;2023-02-01T09:11:14;3.40;99.90
19496;DHT22;9888;48.606;9.630;2023-02-01T09:13:42;3.40;99.90
19496;DHT22;9888;48.606;9.630;2023-02-01T09:16:11;3.40;99.90
19496;DHT22;9888;48.606;9.630;2023-02-01T09:18:38;3.40;99.90
19496;DHT22;9888;48.606;9.630;2023-02-01T09:21:07;3.50;99.90
19496;DHT22;9888;48.606;9.630;2023-02-01T09:23:34;3.50;99.90
19496;DHT22;9888;48.606;9.630;2023-02-01T09:26:03;3.60;99.90
19496;DHT22;9888;48.606;9.630;2023-02-01T09:28:30;3.50;99.90
19496;DHT22;9888;48.606;9.630;2023-02-01T09:31:01;3.50;99.90
19496;DHT22;9888;48.606;9.630;2023-02-01T09:33:29;3.50;99.90
19496;DHT22;9888;48.606;9.630;2023-02-01T09:36:03;3.40;99.90
19496;DHT22;9888;48.606;9.630;2023-02-01T09:38:34;3.40;99.90
19496;DHT22;9888;48.606;9.630;2023-02-01T09:41:26;3.40;99.90
19496;DHT22;9888;48.606;9.630;2023-02-01T09:46:38;3.30;99.90
19496;DHT22;9888;48.606;9.630;2023-02-01T09:49:22;3.30;99.90
19496;DHT22;9888;48.606;9.630;2023-02-01T09:51:56;3.40;99.90
19496;DHT22;9888;48.606;9.630;2023-02-01T09:55:04;3.40;99.90
19496;DHT22;9888;48.606;9.630;2023-02-01T10:00:29;3.40;99.90
19496;DHT22;9888;48.606;9.630;2023-02-01T10:03:00;3.30;99.90
19496;DHT22;9888;48.606;9.630;2023-02-01T10:05:39;3.30;99.90
19496;DHT22;9888;48.606;9.630;2023-02-01T10:10:55;3.30;99.90
19496;DHT22;9888;48.606;9.630;2023-02-01T10:16:17;3.20;99.90
19496;DHT22;9888;48.606;9.630;2023-02-01T10:21:53;3.20;99.90
19496;DHT22;9888;48.606;9.630;2023-02-01T10:27:19;3.20;99.90
19496;DHT22;9888;48.606;9.630;2023-02-01T10:29:58;3.20;99.90
19496;DHT22;9888;48.606;9.630;2023-02-01T10:32:32;3.20;99.90
19496;DHT22;9888;48.606;9.630;2023-02-01T10:35:08;3.30;99.90
19496;DHT22;9888;48.606;9.630;2023-02-01T10:37:37;3.30;99.90
19496;DHT22;9888;48.606;9.630;2023-02-01T10:40:26;3.30;99.90
19496;DHT22;9888;48.606;9.630;2023-02-01T10:42:57;3.30;99.90
19496;DHT22;9888;48.606;9.630;2023-02-01T10:45:28;3.30;99.90
19496;DHT22;9888;48.606;9.630;2023-02-01T10:47:58;3.30;99.90
19496;DHT22;9888;48.606;9.630;2023-02-01T10:50:55;3.30;99.90
19496;DHT22;9888;48.606;9.630;2023-02-01T10:53:31;3.30;99.90
19496;DHT22;9888;48.606;9.630;2023-02-01T10:56:09;3.30;99.90
19496;DHT22;9888;48.606;9.630;2023-02-01T10:58:46;3.30;99.90
19496;DHT22;9888;48.606;9.630;2023-02-01T11:01:31;3.30;99.90
19496;DHT22;9888;48.606;9.630;2023-02-01T11:04:12;3.20;99.90
19496;DHT22;9888;48.606;9.630;2023-02-01T11:06:42;3.20;99.90
19496;DHT22;9888;48.606;9.630;2023-02-01T11:14:30;3.30;99.90
19496;DHT22;9888;48.606;9.630;2023-02-01T11:17:01;3.30;99.90
19496;DHT22;9888;48.606;9.630;2023-02-01T11:19:28;3.40;99.90
19496;DHT22;9888;48.606;9.630;2023-02-01T11:21:59;3.30;99.90
19496;DHT22;9888;48.606;9.630;2023-02-01T11:24:31;3.30;99.90
19496;DHT22;9888;48.606;9.630;2023-02-01T11:27:04;3.20;99.90
19496;DHT22;9888;48.606;9.630;2023-02-01T11:29:38;3.20;99.90
19496;DHT22;9888;48.606;9.630;2023-02-01T11:32:09;3.30;99.90
19496;DHT22;9888;48.606;9.630;2023-02-01T11:34:44;3.30;99.90
19496;DHT22;9888;48.606;9.630;2023-02-01T11:37:25;3.30;99.90
19496;DHT22;9888;48.606;9.630;2023-02-01T11:39:57;3.30;99.90
19496;DHT22;9888;48.606;9.630;2023-02-01T11:42:27;3.30;99.90
19496;DHT22;9888;48.606;9.630;2023-02-01T11:45:20;3.30;99.90
19496;DHT22;9888;48.606;9.630;2023-02-01T11:47:52;3.30;99.90
19496;DHT22;9888;48.606;9.630;2023-02-01T11:50:46;3.40;99.90
19496;DHT22;9888;48.606;9.630;2023-02-01T11:56:14;3.50;99.90
19496;DHT22;9888;48.606;9.630;2023-02-01T12:10:28;3.40;99.90
19496;DHT22;9888;48.606;9.630;2023-02-01T12:13:18;3.50;99.90
19496;DHT22;9888;48.606;9.630;2023-02-01T12:16:17;3.50;99.90
19496;DHT22;9888;48.606;9.630;2023-02-01T12:21:53;3.70;99.90
19496;DHT22;9888;48.606;9.630;2023-02-01T12:27:41;3.60;99.90
19496;DHT22;9888;48.606;9.630;2023-02-01T12:33:09;3.50;99.90
19496;DHT22;9888;48.606;9.630;2023-02-01T12:42:03;3.50;99.90
19496;DHT22;9888;48.606;9.630;2023-02-01T12:50:42;3.40;99.90
19496;DHT22;9888;48.606;9.630;2023-02-01T12:56:09;3.30;99.90
19496;DHT22;9888;48.606;9.630;2023-02-01T12:58:55;3.30;99.90
19496;DHT22;9888;48.606;9.630;2023-02-01T13:01:52;3.30;99.90
19496;DHT22;9888;48.606;9.630;2023-02-01T13:07:08;3.20;99.90
19496;DHT22;9888;48.606;9.630;2023-02-01T13:12:51;3.20;99.90
19496;DHT22;9888;48.606;9.630;2023-02-01T13:15:31;3.20;99.90
19496;DHT22;9888;48.606;9.630;2023-02-01T13:18:09;3.20;99.90
19496;DHT22;9888;48.606;9.630;2023-02-01T13:23:38;3.10;99.90
19496;DHT22;9888;48.606;9.630;2023-02-01T13:26:06;3.20;99.90
19496;DHT22;9888;48.606;9.630;2023-02-01T13:29:09;3.10;99.90
19496;DHT22;9888;48.606;9.630;2023-02-01T13:38:04;3.10;99.90
19496;DHT22;9888;48.606;9.630;2023-02-01T13:43:16;3.00;99.90
19496;DHT22;9888;48.606;9.630;2023-02-01T13:45:49;2.90;99.90
19496;DHT22;9888;48.606;9.630;2023-02-01T13:51:48;3.00;99.90
19496;DHT22;9888;48.606;9.630;2023-02-01T13:54:29;3.00;99.90
19496;DHT22;9888;48.606;9.630;2023-02-01T13:57:03;3.10;99.90
19496;DHT22;9888;48.606;9.630;2023-02-01T14:13:24;3.20;99.90
19496;DHT22;9888;48.606;9.630;2023-02-01T14:21:32;3.20;99.90
19496;DHT22;9888;48.606;9.630;2023-02-01T14:26:46;3.10;99.90
19496;DHT22;9888;48.606;9.630;2023-02-01T14:32:04;3.10;99.90
19496;DHT22;9888;48.606;9.630;2023-02-01T14:34:50;3.10;99.90
19496;DHT22;9888;48.606;9.630;2023-02-01T14:40:00;3.20;99.90
19496;DHT22;9888;48.606;9.630;2023-02-01T14:42:45;3.20;99.90
19496;DHT22;9888;48.606;9.630;2023-02-01T14:55:50;3.20;99.90
19496;DHT22;9888;48.606;9.630;2023-02-01T14:58:41;3.20;99.90
19496;DHT22;9888;48.606;9.630;2023-02-01T15:01:29;3.20;99.90
19496;DHT22;9888;48.606;9.630;2023-02-01T15:04:09;3.30;99.90
19496;DHT22;9888;48.606;9.630;2023-02-01T15:09:16;3.30;99.90
19496;DHT22;9888;48.606;9.630;2023-02-01T15:11:58;3.30;99.90
19496;DHT22;9888;48.606;9.630;2023-02-01T15:14:30;3.20;99.90
19496;DHT22;9888;48.606;9.630;2023-02-01T15:16:58;3.20;99.90
19496;DHT22;9888;48.606;9.630;2023-02-01T15:19:35;3.20;99.90
19496;DHT22;9888;48.606;9.630;2023-02-01T15:22:05;3.20;99.90
19496;DHT22;9888;48.606;9.630;2023-02-01T15:24:32;3.20;99.90
19496;DHT22;9888;48.606;9.630;2023-02-01T15:27:05;3.20;99.90
19496;DHT22;9888;48.606;9.630;2023-02-01T15:29:32;3.20;99.90
19496;DHT22;9888;48.606;9.630;2023-02-01T15:32:00;3.20;99.90
19496;DHT22;9888;48.606;9.630;2023-02-01T15:34:47;3.10;99.90
19496;DHT22;9888;48.606;9.630;2023-02-01T15:37:16;3.10;99.90
19496;DHT22;9888;48.606;9.630;2023-02-01T15:42:40;3.10;99.90
19496;DHT22;9888;48.606;9.630;2023-02-01T15:45:28;3.20;99.90
19496;DHT22;9888;48.606;9.630;2023-02-01T15:47:57;3.10;99.90
19496;DHT22;9888;48.606;9.630;2023-02-01T15:50:27;3.10;99.90
19496;DHT22;9888;48.606;9.630;2023-02-01T15:52:55;3.10;99.90
19496;DHT22;9888;48.606;9.630;2023-02-01T15:55:41;3.10;99.90
19496;DHT22;9888;48.606;9.630;2023-02-01T15:58:17;3.10;99.90
19496;DHT22;9888;48.606;9.630;2023-02-01T16:00:55;3.10;99.90
19496;DHT22;9888;48.606;9.630;2023-02-01T16:03:32;3.10;99.90
19496;DHT22;9888;48.606;9.630;2023-02-01T16:06:04;3.10;99.90
19496;DHT22;9888;48.606;9.630;2023-02-01T16:08:33;3.10;99.90
19496;DHT22;9888;48.606;9.630;2023-02-01T16:12:01;3.10;99.90
19496;DHT22;9888;48.606;9.630;2023-02-01T16:14:02;3.10;99.90
19496;DHT22;9888;48.606;9.630;2023-02-01T16:16:30;3.10;99.90
19496;DHT22;9888;48.606;9.630;2023-02-01T16:18:58;2.80;99.90
19496;DHT22;9888;48.606;9.630;2023-02-01T16:21:26;2.70;99.90
19496;DHT22;9888;48.606;9.630;2023-02-01T16:23:53;2.60;99.90
19496;DHT22;9888;48.606;9.630;2023-02-01T16:26:20;2.60;99.90
19496;DHT22;9888;48.606;9.630;2023-02-01T16:28:48;2.60;99.90
19496;DHT22;9888;48.606;9.630;2023-02-01T16:31:18;2.60;99.90
19496;DHT22;9888;48.606;9.630;2023-02-01T16:33:50;2.70;99.90
19496;DHT22;9888;48.606;9.630;2023-02-01T16:36:19;2.70;99.90
19496;DHT22;9888;48.606;9.630;2023-02-01T16:38:46;2.70;99.90
19496;DHT22;9888;48.606;9.630;2023-02-01T16:41:18;2.70;99.90
19496;DHT22;9888;48.606;9.630;2023-02-01T16:43:53;2.80;99.90
19496;DHT22;9888;48.606;9.630;2023-02-01T16:46:24;2.80;99.90
19496;DHT22;9888;48.606;9.630;2023-02-01T16:48:56;2.90;99.90
19496;DHT22;9888;48.606;9.630;2023-02-01T16:51:26;2.90;99.90
19496;DHT22;9888;48.606;9.630;2023-02-01T16:53:55;3.00;99.90
19496;DHT22;9888;48.606;9.630;2023-02-01T16:56:31;3.00;99.90
19496;DHT22;9888;48.606;9.630;2023-02-01T16:58:59;2.90;99.90
19496;DHT22;9888;48.606;9.630;2023-02-01T17:01:27;3.00;99.90
19496;DHT22;9888;48.606;9.630;2023-02-01T17:03:54;3.00;99.90
19496;DHT22;9888;48.606;9.630;2023-02-01T17:06:25;3.00;99.90
19496;DHT22;9888;48.606;9.630;2023-02-01T17:08:55;3.00;99.90
19496;DHT22;9888;48.606;9.630;2023-02-01T17:11:24;3.00;99.90
19496;DHT22;9888;48.606;9.630;2023-02-01T17:14:20;3.10;99.90
19496;DHT22;9888;48.606;9.630;2023-02-01T17:16:49;3.10;99.90
19496;DHT22;9888;48.606;9.630;2023-02-01T17:19:20;3.10;99.90
19496;DHT22;9888;48.606;9.630;2023-02-01T17:21:51;3.00;99.90
19496;DHT22;9888;48.606;9.630;2023-02-01T17:24:23;3.00;99.90
19496;DHT22;9888;48.606;9.630;2023-02-01T17:26:51;3.10;99.90
19496;DHT22;9888;48.606;9.630;2023-02-01T17:29:19;3.00;99.90
19496;DHT22;9888;48.606;9.630;2023-02-01T17:31:49;3.10;99.90
19496;DHT22;9888;48.606;9.630;2023-02-01T17:34:19;3.00;99.90
19496;DHT22;9888;48.606;9.630;2023-02-01T17:40:05;3.10;99.90
19496;DHT22;9888;48.606;9.630;2023-02-01T17:42:33;3.10;99.90
19496;DHT22;9888;48.606;9.630;2023-02-01T17:45:39;3.10;99.90
19496;DHT22;9888;48.606;9.630;2023-02-01T17:48:07;3.10;99.90
19496;DHT22;9888;48.606;9.630;2023-02-01T17:50:36;3.10;99.90
19496;DHT22;9888;48.606;9.630;2023-02-01T17:53:04;3.10;99.90
19496;DHT22;9888;48.606;9.630;2023-02-01T17:58:55;3.10;99.90
19496;DHT22;9888;48.606;9.630;2023-02-01T18:01:24;3.10;99.90
19496;DHT22;9888;48.606;9.630;2023-02-01T18:03:52;3.00;99.90
19496;DHT22;9888;48.606;9.630;2023-02-01T18:06:27;3.00;99.90
19496;DHT22;9888;48.606;9.630;2023-02-01T18:08:56;3.10;99.90
19496;DHT22;9888;48.606;9.630;2023-02-01T18:11:24;3.10;99.90
19496;DHT22;9888;48.606;9.630;2023-02-01T18:13:52;3.10;99.90
19496;DHT22;9888;48.606;9.630;2023-02-01T18:16:23;3.10;99.90
19496;DHT22;9888;48.606;9.630;2023-02-01T18:18:54;3.10;99.90
19496;DHT22;9888;48.606;9.630;2023-02-01T18:21:41;3.10;99.90
19496;DHT22;9888;48.606;9.630;2023-02-01T18:24:16;3.10;99.90
19496;DHT22;9888;48.606;9.630;2023-02-01T18:26:44;3.10;99.90
19496;DHT22;9888;48.606;9.630;2023-02-01T18:29:11;3.20;99.90
19496;DHT22;9888;48.606;9.630;2023-02-01T18:31:46;3.10;99.90
19496;DHT22;9888;48.606;9.630;2023-02-01T18:34:16;3.20;99.90
19496;DHT22;9888;48.606;9.630;2023-02-01T18:36:51;3.20;99.90
19496;DHT22;9888;48.606;9.630;2023-02-01T18:39:20;3.20;99.90
19496;DHT22;9888;48.606;9.630;2023-02-01T18:41:48;3.20;99.90
19496;DHT22;9888;48.606;9.630;2023-02-01T18:44:17;3.20;99.90
19496;DHT22;9888;48.606;9.630;2023-02-01T18:46:44;3.20;99.90
19496;DHT22;9888;48.606;9.630;2023-02-01T18:49:12;3.20;99.90
19496;DHT22;9888;48.606;9.630;2023-02-01T18:51:45;3.20;99.90
19496;DHT22;9888;48.606;9.630;2023-02-01T18:54:14;3.20;99.90
19496;DHT22;9888;48.606;9.630;2023-02-01T18:56:41;3.10;99.90
19496;DHT22;9888;48.606;9.630;2023-02-01T18:59:09;3.20;99.90
19496;DHT22;9888;48.606;9.630;2023-02-01T19:01:39;3.20;99.90
19496;DHT22;9888;48.606;9.630;2023-02-01T19:04:07;3.20;99.90
19496;DHT22;9888;48.606;9.630;2023-02-01T19:06:35;3.20;99.90
19496;DHT22;9888;48.606;9.630;2023-02-01T19:09:04;3.20;99.90
19496;DHT22;9888;48.606;9.630;2023-02-01T19:11:31;3.10;99.90